sensor_id;sensor_type;location;lat;lon;timestamp;temperature;humidity
48579;DHT22;34357;51.948;6.132;2024-01-30T00:01:53;8.20;88.50
48579;DHT22;34357;51.948;6.132;2024-01-30T00:04:19;8.20;88.40
48579;DHT22;34357;51.948;6.132;2024-01-30T00:06:45;8.10;88.20
48579;DHT22;34357;51.948;6.132;2024-01-30T00:09:11;8.00;88.30
48579;DHT22;34357;51.948;6.132;2024-01-30T00:11:37;7.90;88.40
48579;DHT22;34357;51.948;6.132;2024-01-30T00:14:04;7.90;88.50
48579;DHT22;34357;51.948;6.132;2024-01-30T00:16:30;7.90;88.70
48579;DHT22;34357;51.948;6.132;2024-01-30T00:18:56;8.00;88.60
48579;DHT22;34357;51.948;6.132;2024-01-30T00:21:22;8.00;88.40
48579;DHT22;34357;51.948;6.132;2024-01-30T00:23:49;7.90;88.40
48579;DHT22;34357;51.948;6.132;2024-01-30T00:26:15;8.00;88.50
48579;DHT22;34357;51.948;6.132;2024-01-30T00:28:41;7.90;88.20
48579;DHT22;34357;51.948;6.132;2024-01-30T00:31:07;7.90;88.20
48579;DHT22;34357;51.948;6.132;2024-01-30T00:33:41;7.90;88.40
48579;DHT22;34357;51.948;6.132;2024-01-30T00:36:08;7.80;88.30
48579;DHT22;34357;51.948;6.132;2024-01-30T00:38:34;7.90;88.40
48579;DHT22;34357;51.948;6.132;2024-01-30T00:41:00;7.80;88.40
48579;DHT22;34357;51.948;6.132;2024-01-30T00:43:27;7.70;88.50
48579;DHT22;34357;51.948;6.132;2024-01-30T00:45:53;7.60;88.70
48579;DHT22;34357;51.948;6.132;2024-01-30T00:48:19;7.60;88.80
48579;DHT22;34357;51.948;6.132;2024-01-30T00:50:45;7.50;88.90
48579;DHT22;34357;51.948;6.132;2024-01-30T00:53:11;7.60;89.00
48579;DHT22;34357;51.948;6.132;2024-01-30T00:55:37;7.60;89.10
48579;DHT22;34357;51.948;6.132;2024-01-30T00:58:03;7.60;88.90
48579;DHT22;34357;51.948;6.132;2024-01-30T01:00:29;7.50;88.90
48579;DHT22;34357;51.948;6.132;2024-01-30T01:02:56;7.50;88.90
48579;DHT22;34357;51.948;6.132;2024-01-30T01:05:22;7.50;89.00
48579;DHT22;34357;51.948;6.132;2024-01-30T01:07:48;7.50;89.00
48579;DHT22;34357;51.948;6.132;2024-01-30T01:10:14;7.50;89.00
48579;DHT22;34357;51.948;6.132;2024-01-30T01:12:41;7.50;89.00
48579;DHT22;34357;51.948;6.132;2024-01-30T01:15:08;7.60;89.00
48579;DHT22;34357;51.948;6.132;2024-01-30T01:17:36;7.60;88.80
48579;DHT22;34357;51.948;6.132;2024-01-30T01:20:03;7.60;88.60
48579;DHT22;34357;51.948;6.132;2024-01-30T01:22:29;7.60;88.50
48579;DHT22;34357;51.948;6.132;2024-01-30T01:24:55;7.60;88.60
48579;DHT22;34357;51.948;6.132;2024-01-30T01:27:20;7.60;88.60
48579;DHT22;34357;51.948;6.132;2024-01-30T01:29:46;7.60;88.30
48579;DHT22;34357;51.948;6.132;2024-01-30T01:32:12;7.60;88.30
48579;DHT22;34357;51.948;6.132;2024-01-30T01:34:38;7.70;88.20
48579;DHT22;34357;51.948;6.132;2024-01-30T01:37:04;7.70;88.00
48579;DHT22;34357;51.948;6.132;2024-01-30T01:39:30;7.70;87.90
48579;DHT22;34357;51.948;6.132;2024-01-30T01:41:56;7.60;87.90
48579;DHT22;34357;51.948;6.132;2024-01-30T01:44:21;7.60;88.00
48579;DHT22;34357;51.948;6.132;2024-01-30T01:46:47;7.50;88.10
48579;DHT22;34357;51.948;6.132;2024-01-30T01:49:14;7.60;88.10
48579;DHT22;34357;51.948;6.132;2024-01-30T01:51:41;7.60;88.20
48579;DHT22;34357;51.948;6.132;2024-01-30T01:54:08;7.60;88.00
48579;DHT22;34357;51.948;6.132;2024-01-30T01:56:34;7.60;87.90
48579;DHT22;34357;51.948;6.132;2024-01-30T01:59:06;7.60;87.80
48579;DHT22;34357;51.948;6.132;2024-01-30T02:01:34;7.60;88.00
48579;DHT22;34357;51.948;6.132;2024-01-30T02:04:00;7.60;87.90
48579;DHT22;34357;51.948;6.132;2024-01-30T02:06:27;7.60;87.70
48579;DHT22;34357;51.948;6.132;2024-01-30T02:08:54;7.60;87.70
48579;DHT22;34357;51.948;6.132;2024-01-30T02:11:21;7.60;87.70
48579;DHT22;34357;51.948;6.132;2024-01-30T02:13:47;7.70;87.70
48579;DHT22;34357;51.948;6.132;2024-01-30T02:16:13;7.70;87.60
48579;DHT22;34357;51.948;6.132;2024-01-30T02:18:39;7.80;87.50
48579;DHT22;34357;51.948;6.132;2024-01-30T02:21:09;7.80;87.30
48579;DHT22;34357;51.948;6.132;2024-01-30T02:23:35;7.90;87.20
48579;DHT22;34357;51.948;6.132;2024-01-30T02:26:01;7.90;86.80
48579;DHT22;34357;51.948;6.132;2024-01-30T02:28:26;7.90;87.00
48579;DHT22;34357;51.948;6.132;2024-01-30T02:30:53;7.90;86.80
48579;DHT22;34357;51.948;6.132;2024-01-30T02:33:19;7.90;86.80
48579;DHT22;34357;51.948;6.132;2024-01-30T02:35:44;7.90;87.10
48579;DHT22;34357;51.948;6.132;2024-01-30T02:38:10;7.90;86.80
48579;DHT22;34357;51.948;6.132;2024-01-30T02:40:36;7.80;87.00
48579;DHT22;34357;51.948;6.132;2024-01-30T02:43:02;7.80;86.90
48579;DHT22;34357;51.948;6.132;2024-01-30T02:45:28;7.80;87.10
48579;DHT22;34357;51.948;6.132;2024-01-30T02:47:54;7.80;87.10
48579;DHT22;34357;51.948;6.132;2024-01-30T02:50:19;7.80;87.10
48579;DHT22;34357;51.948;6.132;2024-01-30T02:52:45;7.80;86.90
48579;DHT22;34357;51.948;6.132;2024-01-30T02:55:11;7.80;86.90
48579;DHT22;34357;51.948;6.132;2024-01-30T02:57:38;7.80;87.00
48579;DHT22;34357;51.948;6.132;2024-01-30T03:00:04;7.70;86.90
48579;DHT22;34357;51.948;6.132;2024-01-30T03:02:32;7.70;87.00
48579;DHT22;34357;51.948;6.132;2024-01-30T03:04:59;7.60;87.10
48579;DHT22;34357;51.948;6.132;2024-01-30T03:07:25;7.50;87.20
48579;DHT22;34357;51.948;6.132;2024-01-30T03:09:51;7.50;87.50
48579;DHT22;34357;51.948;6.132;2024-01-30T03:12:17;7.40;87.70
48579;DHT22;34357;51.948;6.132;2024-01-30T03:18:29;7.40;87.70
48579;DHT22;34357;51.948;6.132;2024-01-30T03:20:55;7.40;87.90
48579;DHT22;34357;51.948;6.132;2024-01-30T03:23:21;7.40;87.70
48579;DHT22;34357;51.948;6.132;2024-01-30T03:41:09;7.50;87.70
48579;DHT22;34357;51.948;6.132;2024-01-30T03:43:36;7.50;87.80
48579;DHT22;34357;51.948;6.132;2024-01-30T03:46:02;7.50;87.70
48579;DHT22;34357;51.948;6.132;2024-01-30T03:48:29;7.40;87.70
48579;DHT22;34357;51.948;6.132;2024-01-30T03:50:55;7.40;87.90
48579;DHT22;34357;51.948;6.132;2024-01-30T03:53:21;7.40;88.00
48579;DHT22;34357;51.948;6.132;2024-01-30T03:55:47;7.30;88.00
48579;DHT22;34357;51.948;6.132;2024-01-30T03:58:12;7.30;88.20
48579;DHT22;34357;51.948;6.132;2024-01-30T04:00:38;7.30;88.20
48579;DHT22;34357;51.948;6.132;2024-01-30T04:03:04;7.40;88.10
48579;DHT22;34357;51.948;6.132;2024-01-30T04:05:30;7.40;88.10
48579;DHT22;34357;51.948;6.132;2024-01-30T04:07:56;7.40;88.20
48579;DHT22;34357;51.948;6.132;2024-01-30T04:10:21;7.50;88.10
48579;DHT22;34357;51.948;6.132;2024-01-30T04:12:47;7.60;88.10
48579;DHT22;34357;51.948;6.132;2024-01-30T04:15:14;7.60;88.00
48579;DHT22;34357;51.948;6.132;2024-01-30T04:17:40;7.70;87.90
48579;DHT22;34357;51.948;6.132;2024-01-30T04:20:06;7.70;87.50
48579;DHT22;34357;51.948;6.132;2024-01-30T04:22:32;7.70;87.50
48579;DHT22;34357;51.948;6.132;2024-01-30T04:24:57;7.70;87.40
48579;DHT22;34357;51.948;6.132;2024-01-30T04:27:23;7.60;87.40
48579;DHT22;34357;51.948;6.132;2024-01-30T04:29:49;7.70;87.50
48579;DHT22;34357;51.948;6.132;2024-01-30T04:32:14;7.70;87.40
48579;DHT22;34357;51.948;6.132;2024-01-30T04:34:40;7.70;87.50
48579;DHT22;34357;51.948;6.132;2024-01-30T04:37:06;7.80;87.50
48579;DHT22;34357;51.948;6.132;2024-01-30T04:39:33;7.90;87.40
48579;DHT22;34357;51.948;6.132;2024-01-30T04:41:59;7.80;87.00
48579;DHT22;34357;51.948;6.132;2024-01-30T04:44:25;7.70;87.10
48579;DHT22;34357;51.948;6.132;2024-01-30T04:46:50;7.60;87.40
48579;DHT22;34357;51.948;6.132;2024-01-30T04:49:16;7.60;87.60
48579;DHT22;34357;51.948;6.132;2024-01-30T04:51:42;7.60;87.40
48579;DHT22;34357;51.948;6.132;2024-01-30T04:54:08;7.50;87.60
48579;DHT22;34357;51.948;6.132;2024-01-30T04:56:33;7.40;87.90
48579;DHT22;34357;51.948;6.132;2024-01-30T04:59:02;7.40;88.00
48579;DHT22;34357;51.948;6.132;2024-01-30T05:01:28;7.40;88.20
48579;DHT22;34357;51.948;6.132;2024-01-30T05:03:53;7.30;88.20
48579;DHT22;34357;51.948;6.132;2024-01-30T05:06:26;7.30;88.40
48579;DHT22;34357;51.948;6.132;2024-01-30T05:08:52;7.40;88.60
48579;DHT22;34357;51.948;6.132;2024-01-30T05:11:17;7.30;88.40
48579;DHT22;34357;51.948;6.132;2024-01-30T05:13:43;7.30;88.40
48579;DHT22;34357;51.948;6.132;2024-01-30T05:16:09;7.30;88.60
48579;DHT22;34357;51.948;6.132;2024-01-30T05:18:34;7.20;88.70
48579;DHT22;34357;51.948;6.132;2024-01-30T05:21:00;7.30;88.90
48579;DHT22;34357;51.948;6.132;2024-01-30T05:23:26;7.30;88.90
48579;DHT22;34357;51.948;6.132;2024-01-30T05:25:52;7.30;88.90
48579;DHT22;34357;51.948;6.132;2024-01-30T05:28:18;7.40;89.00
48579;DHT22;34357;51.948;6.132;2024-01-30T05:30:43;7.50;88.90
48579;DHT22;34357;51.948;6.132;2024-01-30T05:33:09;7.40;88.70
48579;DHT22;34357;51.948;6.132;2024-01-30T05:35:37;7.60;88.90
48579;DHT22;34357;51.948;6.132;2024-01-30T05:38:03;7.70;88.50
48579;DHT22;34357;51.948;6.132;2024-01-30T05:40:32;7.80;88.00
48579;DHT22;34357;51.948;6.132;2024-01-30T05:42:58;7.80;88.20
48579;DHT22;34357;51.948;6.132;2024-01-30T05:45:26;7.70;88.10
48579;DHT22;34357;51.948;6.132;2024-01-30T05:47:52;7.70;88.20
48579;DHT22;34357;51.948;6.132;2024-01-30T05:50:19;7.70;88.30
48579;DHT22;34357;51.948;6.132;2024-01-30T05:52:45;7.70;88.30
48579;DHT22;34357;51.948;6.132;2024-01-30T05:55:12;7.70;88.60
48579;DHT22;34357;51.948;6.132;2024-01-30T05:57:38;7.70;88.70
48579;DHT22;34357;51.948;6.132;2024-01-30T06:00:05;7.80;88.70
48579;DHT22;34357;51.948;6.132;2024-01-30T06:02:32;7.90;88.60
48579;DHT22;34357;51.948;6.132;2024-01-30T06:04:58;7.80;88.40
48579;DHT22;34357;51.948;6.132;2024-01-30T06:07:24;7.90;88.60
48579;DHT22;34357;51.948;6.132;2024-01-30T06:09:49;8.00;88.40
48579;DHT22;34357;51.948;6.132;2024-01-30T06:12:15;8.00;88.20
48579;DHT22;34357;51.948;6.132;2024-01-30T06:14:41;8.00;88.30
48579;DHT22;34357;51.948;6.132;2024-01-30T06:17:08;8.10;88.20
48579;DHT22;34357;51.948;6.132;2024-01-30T06:19:34;8.10;88.20
48579;DHT22;34357;51.948;6.132;2024-01-30T06:22:00;8.20;88.20
48579;DHT22;34357;51.948;6.132;2024-01-30T06:24:26;8.10;88.00
48579;DHT22;34357;51.948;6.132;2024-01-30T06:26:53;8.20;88.10
48579;DHT22;34357;51.948;6.132;2024-01-30T06:29:19;8.40;87.80
48579;DHT22;34357;51.948;6.132;2024-01-30T06:31:44;8.40;87.50
48579;DHT22;34357;51.948;6.132;2024-01-30T06:34:10;8.40;87.30
48579;DHT22;34357;51.948;6.132;2024-01-30T06:36:37;8.50;87.60
48579;DHT22;34357;51.948;6.132;2024-01-30T06:39:04;8.60;87.20
48579;DHT22;34357;51.948;6.132;2024-01-30T06:41:30;8.60;87.00
48579;DHT22;34357;51.948;6.132;2024-01-30T06:43:56;8.50;86.90
48579;DHT22;34357;51.948;6.132;2024-01-30T06:46:22;8.50;87.30
48579;DHT22;34357;51.948;6.132;2024-01-30T06:48:47;8.50;87.10
48579;DHT22;34357;51.948;6.132;2024-01-30T06:51:13;8.50;87.10
48579;DHT22;34357;51.948;6.132;2024-01-30T06:53:39;8.60;87.20
48579;DHT22;34357;51.948;6.132;2024-01-30T06:56:05;8.60;87.00
48579;DHT22;34357;51.948;6.132;2024-01-30T06:58:31;8.60;87.00
48579;DHT22;34357;51.948;6.132;2024-01-30T07:00:57;8.70;86.80
48579;DHT22;34357;51.948;6.132;2024-01-30T07:03:23;8.60;86.70
48579;DHT22;34357;51.948;6.132;2024-01-30T07:05:49;8.60;87.20
48579;DHT22;34357;51.948;6.132;2024-01-30T07:08:15;8.70;87.00
48579;DHT22;34357;51.948;6.132;2024-01-30T07:10:43;8.80;87.00
48579;DHT22;34357;51.948;6.132;2024-01-30T07:13:10;8.70;86.80
48579;DHT22;34357;51.948;6.132;2024-01-30T07:15:36;8.80;86.90
48579;DHT22;34357;51.948;6.132;2024-01-30T07:18:05;8.90;86.80
48579;DHT22;34357;51.948;6.132;2024-01-30T07:20:31;8.80;86.70
48579;DHT22;34357;51.948;6.132;2024-01-30T07:23:00;8.90;86.70
48579;DHT22;34357;51.948;6.132;2024-01-30T07:25:26;8.90;86.70
48579;DHT22;34357;51.948;6.132;2024-01-30T07:27:52;9.00;86.50
48579;DHT22;34357;51.948;6.132;2024-01-30T07:30:21;9.00;86.30
48579;DHT22;34357;51.948;6.132;2024-01-30T07:32:48;9.00;86.30
48579;DHT22;34357;51.948;6.132;2024-01-30T07:35:14;9.10;86.30
48579;DHT22;34357;51.948;6.132;2024-01-30T07:37:40;9.10;85.80
48579;DHT22;34357;51.948;6.132;2024-01-30T07:40:06;9.10;86.20
48579;DHT22;34357;51.948;6.132;2024-01-30T07:42:32;9.20;86.00
48579;DHT22;34357;51.948;6.132;2024-01-30T07:44:59;9.20;86.00
48579;DHT22;34357;51.948;6.132;2024-01-30T07:47:25;9.20;85.80
48579;DHT22;34357;51.948;6.132;2024-01-30T07:49:51;9.30;85.90
48579;DHT22;34357;51.948;6.132;2024-01-30T07:52:16;9.30;85.80
48579;DHT22;34357;51.948;6.132;2024-01-30T07:54:42;9.20;85.90
48579;DHT22;34357;51.948;6.132;2024-01-30T07:57:08;9.30;85.60
48579;DHT22;34357;51.948;6.132;2024-01-30T07:59:34;9.20;85.70
48579;DHT22;34357;51.948;6.132;2024-01-30T08:02:00;9.30;85.80
48579;DHT22;34357;51.948;6.132;2024-01-30T08:04:25;9.30;85.80
48579;DHT22;34357;51.948;6.132;2024-01-30T08:06:51;9.30;85.90
48579;DHT22;34357;51.948;6.132;2024-01-30T08:09:17;9.30;85.70
48579;DHT22;34357;51.948;6.132;2024-01-30T08:11:42;9.30;85.60
48579;DHT22;34357;51.948;6.132;2024-01-30T08:14:08;9.30;85.90
48579;DHT22;34357;51.948;6.132;2024-01-30T08:16:34;9.30;85.90
48579;DHT22;34357;51.948;6.132;2024-01-30T08:18:59;9.30;85.90
48579;DHT22;34357;51.948;6.132;2024-01-30T08:21:26;9.30;85.90
48579;DHT22;34357;51.948;6.132;2024-01-30T08:23:52;9.40;85.70
48579;DHT22;34357;51.948;6.132;2024-01-30T08:26:18;9.30;85.70
48579;DHT22;34357;51.948;6.132;2024-01-30T08:28:43;9.40;85.70
48579;DHT22;34357;51.948;6.132;2024-01-30T08:31:10;9.40;85.90
48579;DHT22;34357;51.948;6.132;2024-01-30T08:33:37;9.40;85.90
48579;DHT22;34357;51.948;6.132;2024-01-30T08:36:03;9.30;86.00
48579;DHT22;34357;51.948;6.132;2024-01-30T08:38:28;9.30;86.10
48579;DHT22;34357;51.948;6.132;2024-01-30T08:40:55;9.30;86.10
48579;DHT22;34357;51.948;6.132;2024-01-30T08:43:20;9.40;86.10
48579;DHT22;34357;51.948;6.132;2024-01-30T08:45:46;9.40;86.10
48579;DHT22;34357;51.948;6.132;2024-01-30T08:48:12;9.40;86.10
48579;DHT22;34357;51.948;6.132;2024-01-30T08:50:38;9.40;85.90
48579;DHT22;34357;51.948;6.132;2024-01-30T08:53:04;9.40;86.10
48579;DHT22;34357;51.948;6.132;2024-01-30T08:55:29;9.40;86.00
48579;DHT22;34357;51.948;6.132;2024-01-30T08:57:56;9.40;86.00
48579;DHT22;34357;51.948;6.132;2024-01-30T09:00:22;9.50;86.10
48579;DHT22;34357;51.948;6.132;2024-01-30T09:02:47;9.40;86.10
48579;DHT22;34357;51.948;6.132;2024-01-30T09:05:13;9.40;86.10
48579;DHT22;34357;51.948;6.132;2024-01-30T09:07:39;9.50;86.30
48579;DHT22;34357;51.948;6.132;2024-01-30T09:10:05;9.50;86.10
48579;DHT22;34357;51.948;6.132;2024-01-30T09:12:31;9.70;86.10
48579;DHT22;34357;51.948;6.132;2024-01-30T09:14:56;9.70;86.00
48579;DHT22;34357;51.948;6.132;2024-01-30T09:17:22;9.70;85.90
48579;DHT22;34357;51.948;6.132;2024-01-30T09:19:48;9.80;86.00
48579;DHT22;34357;51.948;6.132;2024-01-30T09:22:13;9.80;85.90
48579;DHT22;34357;51.948;6.132;2024-01-30T09:24:40;9.90;85.60
48579;DHT22;34357;51.948;6.132;2024-01-30T09:27:06;9.90;85.50
48579;DHT22;34357;51.948;6.132;2024-01-30T09:29:31;9.90;85.80
48579;DHT22;34357;51.948;6.132;2024-01-30T09:32:00;10.10;85.50
48579;DHT22;34357;51.948;6.132;2024-01-30T09:34:25;10.00;85.40
48579;DHT22;34357;51.948;6.132;2024-01-30T09:36:51;10.10;85.50
48579;DHT22;34357;51.948;6.132;2024-01-30T09:39:17;10.10;85.40
48579;DHT22;34357;51.948;6.132;2024-01-30T09:41:49;10.10;85.20
48579;DHT22;34357;51.948;6.132;2024-01-30T09:44:19;10.20;85.20
48579;DHT22;34357;51.948;6.132;2024-01-30T09:46:47;10.20;85.20
48579;DHT22;34357;51.948;6.132;2024-01-30T09:49:13;10.20;85.10
48579;DHT22;34357;51.948;6.132;2024-01-30T09:51:40;10.20;84.90
48579;DHT22;34357;51.948;6.132;2024-01-30T09:54:08;10.20;85.00
48579;DHT22;34357;51.948;6.132;2024-01-30T09:56:35;10.30;85.10
48579;DHT22;34357;51.948;6.132;2024-01-30T09:59:00;10.20;85.10
48579;DHT22;34357;51.948;6.132;2024-01-30T10:01:26;10.20;85.10
48579;DHT22;34357;51.948;6.132;2024-01-30T10:03:54;10.20;85.30
48579;DHT22;34357;51.948;6.132;2024-01-30T10:06:20;10.20;85.40
48579;DHT22;34357;51.948;6.132;2024-01-30T10:08:46;10.30;85.40
48579;DHT22;34357;51.948;6.132;2024-01-30T10:11:12;10.40;85.10
48579;DHT22;34357;51.948;6.132;2024-01-30T10:13:39;10.40;84.90
48579;DHT22;34357;51.948;6.132;2024-01-30T10:16:05;10.30;85.20
48579;DHT22;34357;51.948;6.132;2024-01-30T10:18:32;10.50;85.40
48579;DHT22;34357;51.948;6.132;2024-01-30T10:20:59;10.50;85.00
48579;DHT22;34357;51.948;6.132;2024-01-30T10:23:24;10.50;85.20
48579;DHT22;34357;51.948;6.132;2024-01-30T10:25:51;10.50;85.00
48579;DHT22;34357;51.948;6.132;2024-01-30T10:28:17;10.50;85.20
48579;DHT22;34357;51.948;6.132;2024-01-30T10:30:43;10.60;85.30
48579;DHT22;34357;51.948;6.132;2024-01-30T10:33:09;10.70;85.00
48579;DHT22;34357;51.948;6.132;2024-01-30T10:35:35;10.80;85.10
48579;DHT22;34357;51.948;6.132;2024-01-30T10:38:00;10.80;84.90
48579;DHT22;34357;51.948;6.132;2024-01-30T10:40:28;10.80;84.90
48579;DHT22;34357;51.948;6.132;2024-01-30T10:42:55;10.80;85.00
48579;DHT22;34357;51.948;6.132;2024-01-30T10:45:26;10.80;85.20
48579;DHT22;34357;51.948;6.132;2024-01-30T10:47:54;10.80;84.90
48579;DHT22;34357;51.948;6.132;2024-01-30T10:50:25;10.80;85.10
48579;DHT22;34357;51.948;6.132;2024-01-30T10:52:51;10.80;85.20
48579;DHT22;34357;51.948;6.132;2024-01-30T10:55:18;10.80;85.40
48579;DHT22;34357;51.948;6.132;2024-01-30T10:57:44;10.80;85.10
48579;DHT22;34357;51.948;6.132;2024-01-30T11:00:12;10.80;85.20
48579;DHT22;34357;51.948;6.132;2024-01-30T11:02:45;10.80;85.00
48579;DHT22;34357;51.948;6.132;2024-01-30T11:05:11;10.80;85.10
48579;DHT22;34357;51.948;6.132;2024-01-30T11:07:39;10.80;85.10
48579;DHT22;34357;51.948;6.132;2024-01-30T11:10:06;10.80;85.20
48579;DHT22;34357;51.948;6.132;2024-01-30T11:12:38;10.70;85.60
48579;DHT22;34357;51.948;6.132;2024-01-30T11:15:16;10.80;85.50
48579;DHT22;34357;51.948;6.132;2024-01-30T11:17:54;10.90;85.30
48579;DHT22;34357;51.948;6.132;2024-01-30T11:20:27;11.00;85.10
48579;DHT22;34357;51.948;6.132;2024-01-30T11:22:55;11.00;85.00
48579;DHT22;34357;51.948;6.132;2024-01-30T11:25:22;11.10;84.80
48579;DHT22;34357;51.948;6.132;2024-01-30T11:27:50;11.20;85.00
48579;DHT22;34357;51.948;6.132;2024-01-30T11:30:27;11.30;84.40
48579;DHT22;34357;51.948;6.132;2024-01-30T11:35:34;11.40;83.90
48579;DHT22;34357;51.948;6.132;2024-01-30T11:38:00;11.40;83.50
48579;DHT22;34357;51.948;6.132;2024-01-30T11:40:31;11.40;83.40
48579;DHT22;34357;51.948;6.132;2024-01-30T11:42:58;11.30;83.70
48579;DHT22;34357;51.948;6.132;2024-01-30T11:45:24;11.40;83.40
48579;DHT22;34357;51.948;6.132;2024-01-30T11:47:50;11.50;82.70
48579;DHT22;34357;51.948;6.132;2024-01-30T11:50:16;11.60;82.10
48579;DHT22;34357;51.948;6.132;2024-01-30T11:52:42;11.70;81.30
48579;DHT22;34357;51.948;6.132;2024-01-30T11:55:09;11.80;81.30
48579;DHT22;34357;51.948;6.132;2024-01-30T11:57:36;11.80;80.50
48579;DHT22;34357;51.948;6.132;2024-01-30T12:00:05;11.90;79.90
48579;DHT22;34357;51.948;6.132;2024-01-30T12:02:39;11.90;80.00
48579;DHT22;34357;51.948;6.132;2024-01-30T12:05:05;11.90;79.90
48579;DHT22;34357;51.948;6.132;2024-01-30T12:07:32;12.00;79.40
48579;DHT22;34357;51.948;6.132;2024-01-30T12:09:57;12.00;79.60
48579;DHT22;34357;51.948;6.132;2024-01-30T12:12:28;12.00;79.80
48579;DHT22;34357;51.948;6.132;2024-01-30T12:14:54;12.10;79.00
48579;DHT22;34357;51.948;6.132;2024-01-30T12:17:31;12.10;78.90
48579;DHT22;34357;51.948;6.132;2024-01-30T12:20:18;12.20;78.60
48579;DHT22;34357;51.948;6.132;2024-01-30T12:22:46;12.20;78.60
48579;DHT22;34357;51.948;6.132;2024-01-30T12:25:13;12.20;78.20
48579;DHT22;34357;51.948;6.132;2024-01-30T12:27:43;12.40;77.50
48579;DHT22;34357;51.948;6.132;2024-01-30T12:30:13;12.50;77.00
48579;DHT22;34357;51.948;6.132;2024-01-30T12:32:44;12.70;76.20
48579;DHT22;34357;51.948;6.132;2024-01-30T12:37:37;12.30;75.90
48579;DHT22;34357;51.948;6.132;2024-01-30T12:40:04;12.20;76.20
48579;DHT22;34357;51.948;6.132;2024-01-30T12:42:29;12.10;76.60
48579;DHT22;34357;51.948;6.132;2024-01-30T12:44:57;12.00;76.30
48579;DHT22;34357;51.948;6.132;2024-01-30T12:47:24;12.00;77.30
48579;DHT22;34357;51.948;6.132;2024-01-30T12:49:50;12.00;77.10
48579;DHT22;34357;51.948;6.132;2024-01-30T12:52:20;11.90;77.30
48579;DHT22;34357;51.948;6.132;2024-01-30T12:54:47;11.90;77.40
48579;DHT22;34357;51.948;6.132;2024-01-30T12:57:13;11.90;77.50
48579;DHT22;34357;51.948;6.132;2024-01-30T12:59:38;11.80;77.30
48579;DHT22;34357;51.948;6.132;2024-01-30T13:02:05;11.80;77.00
48579;DHT22;34357;51.948;6.132;2024-01-30T13:04:31;11.80;76.90
48579;DHT22;34357;51.948;6.132;2024-01-30T13:06:57;11.80;76.40
48579;DHT22;34357;51.948;6.132;2024-01-30T13:09:23;11.80;76.30
48579;DHT22;34357;51.948;6.132;2024-01-30T13:11:50;11.80;75.50
48579;DHT22;34357;51.948;6.132;2024-01-30T13:14:17;11.90;75.50
48579;DHT22;34357;51.948;6.132;2024-01-30T13:16:43;11.70;78.10
48579;DHT22;34357;51.948;6.132;2024-01-30T13:19:08;11.70;79.00
48579;DHT22;34357;51.948;6.132;2024-01-30T13:21:34;11.80;79.20
48579;DHT22;34357;51.948;6.132;2024-01-30T13:24:00;11.80;79.10
48579;DHT22;34357;51.948;6.132;2024-01-30T13:26:26;11.60;79.30
48579;DHT22;34357;51.948;6.132;2024-01-30T13:28:52;11.30;79.70
48579;DHT22;34357;51.948;6.132;2024-01-30T13:31:17;11.20;80.30
48579;DHT22;34357;51.948;6.132;2024-01-30T13:33:44;11.20;80.10
48579;DHT22;34357;51.948;6.132;2024-01-30T13:36:11;11.10;80.30
48579;DHT22;34357;51.948;6.132;2024-01-30T13:38:37;11.10;79.90
48579;DHT22;34357;51.948;6.132;2024-01-30T13:41:03;11.10;79.70
48579;DHT22;34357;51.948;6.132;2024-01-30T13:43:29;11.00;79.00
48579;DHT22;34357;51.948;6.132;2024-01-30T13:45:55;11.00;78.70
48579;DHT22;34357;51.948;6.132;2024-01-30T13:48:21;10.90;78.10
48579;DHT22;34357;51.948;6.132;2024-01-30T13:50:47;10.90;77.60
48579;DHT22;34357;51.948;6.132;2024-01-30T13:53:13;10.90;76.50
48579;DHT22;34357;51.948;6.132;2024-01-30T13:55:42;10.80;76.80
48579;DHT22;34357;51.948;6.132;2024-01-30T13:58:08;10.80;75.90
48579;DHT22;34357;51.948;6.132;2024-01-30T14:00:34;10.80;75.60
48579;DHT22;34357;51.948;6.132;2024-01-30T14:03:00;10.70;75.20
48579;DHT22;34357;51.948;6.132;2024-01-30T14:05:27;10.70;75.10
48579;DHT22;34357;51.948;6.132;2024-01-30T14:07:53;10.70;75.50
48579;DHT22;34357;51.948;6.132;2024-01-30T14:10:19;10.70;75.40
48579;DHT22;34357;51.948;6.132;2024-01-30T14:12:45;10.80;75.80
48579;DHT22;34357;51.948;6.132;2024-01-30T14:15:14;10.60;75.50
48579;DHT22;34357;51.948;6.132;2024-01-30T14:17:49;10.60;75.90
48579;DHT22;34357;51.948;6.132;2024-01-30T14:20:16;10.50;76.60
48579;DHT22;34357;51.948;6.132;2024-01-30T14:22:44;10.40;77.10
48579;DHT22;34357;51.948;6.132;2024-01-30T14:25:10;10.30;77.80
48579;DHT22;34357;51.948;6.132;2024-01-30T14:27:36;10.30;78.50
48579;DHT22;34357;51.948;6.132;2024-01-30T14:30:02;10.20;79.30
48579;DHT22;34357;51.948;6.132;2024-01-30T14:32:28;10.00;80.30
48579;DHT22;34357;51.948;6.132;2024-01-30T14:34:54;9.90;81.10
48579;DHT22;34357;51.948;6.132;2024-01-30T14:37:23;9.80;81.50
48579;DHT22;34357;51.948;6.132;2024-01-30T14:39:49;9.80;82.00
48579;DHT22;34357;51.948;6.132;2024-01-30T14:42:15;9.80;82.00
48579;DHT22;34357;51.948;6.132;2024-01-30T14:44:42;9.80;82.10
48579;DHT22;34357;51.948;6.132;2024-01-30T14:47:08;9.80;82.20
48579;DHT22;34357;51.948;6.132;2024-01-30T14:49:34;9.70;82.30
48579;DHT22;34357;51.948;6.132;2024-01-30T14:52:00;9.70;82.50
48579;DHT22;34357;51.948;6.132;2024-01-30T14:54:26;9.60;82.90
48579;DHT22;34357;51.948;6.132;2024-01-30T14:56:53;9.60;83.00
48579;DHT22;34357;51.948;6.132;2024-01-30T14:59:19;9.50;83.30
48579;DHT22;34357;51.948;6.132;2024-01-30T15:01:45;9.60;83.30
48579;DHT22;34357;51.948;6.132;2024-01-30T15:04:11;9.50;83.70
48579;DHT22;34357;51.948;6.132;2024-01-30T15:06:37;9.50;84.00
48579;DHT22;34357;51.948;6.132;2024-01-30T15:09:03;9.40;84.50
48579;DHT22;34357;51.948;6.132;2024-01-30T15:11:28;9.30;83.80
48579;DHT22;34357;51.948;6.132;2024-01-30T15:13:54;9.40;84.10
48579;DHT22;34357;51.948;6.132;2024-01-30T15:16:20;9.40;84.00
48579;DHT22;34357;51.948;6.132;2024-01-30T15:18:46;9.40;83.80
48579;DHT22;34357;51.948;6.132;2024-01-30T15:21:11;9.40;83.40
48579;DHT22;34357;51.948;6.132;2024-01-30T15:23:37;9.40;83.50
48579;DHT22;34357;51.948;6.132;2024-01-30T15:26:03;9.30;83.50
48579;DHT22;34357;51.948;6.132;2024-01-30T15:28:36;9.30;83.80
48579;DHT22;34357;51.948;6.132;2024-01-30T15:31:06;9.30;83.60
48579;DHT22;34357;51.948;6.132;2024-01-30T15:33:33;9.30;83.70
48579;DHT22;34357;51.948;6.132;2024-01-30T15:35:59;9.30;83.90
48579;DHT22;34357;51.948;6.132;2024-01-30T15:38:26;9.20;84.00
48579;DHT22;34357;51.948;6.132;2024-01-30T15:40:53;9.20;84.10
48579;DHT22;34357;51.948;6.132;2024-01-30T15:43:19;9.20;84.00
48579;DHT22;34357;51.948;6.132;2024-01-30T15:45:44;9.20;84.00
48579;DHT22;34357;51.948;6.132;2024-01-30T15:48:10;9.20;84.00
48579;DHT22;34357;51.948;6.132;2024-01-30T15:50:36;9.20;84.00
48579;DHT22;34357;51.948;6.132;2024-01-30T15:53:02;9.20;84.10
48579;DHT22;34357;51.948;6.132;2024-01-30T15:55:28;9.20;84.10
48579;DHT22;34357;51.948;6.132;2024-01-30T15:57:53;9.20;84.10
48579;DHT22;34357;51.948;6.132;2024-01-30T16:00:19;9.10;84.10
48579;DHT22;34357;51.948;6.132;2024-01-30T16:02:45;9.20;84.00